• Join FlightAware (Why Join?)
  • Login
  • US Flag 
09:09AM EDT


 

Airport Tracker/Info


-or-


 

Live Flight TrackerFlight Track Log ✈ N960DL ✈ 23-May-2013 ✈ KDCA - KATL

Flight Track Log - Related Links

Times and Time Zones

All times are in EDT time to prevent confusion due to time zone crossing. See the N960DL flight status page for this flight to view local times or setup timezone preferences in your user account.

Time Position Orientation Groundspeed Altitude Reporting Facility
EDT Latitude Longitude Course Direction KTS MPH feet Rate Location/Type
08:38PM 38.8167 -77.0333 237° Southwest 154 177 1,300  Level Potomac TRACON
08:39PM 38.7667 -77.0500 195° South 231 266 2,900 1,980 Climbing Potomac TRACON
08:40PM 38.6658 -77.3807 234° Southwest  Level FlightAware Approximate
08:40PM 38.7500 -77.1333 256° West 262 302 5,300  Level Potomac TRACON
08:41PM 38.6059 -77.4990 247° West  Level FlightAware Approximate
08:41PM 38.7333 -77.2167 256° West 258 297 8,400  Level Potomac TRACON
08:42PM 38.5547 -77.6239 237° Southwest  Level FlightAware Approximate
08:42PM 38.7000 -77.3000 243° Southwest 270 311 10,800  Level Potomac TRACON
08:42PM 38.6667 -77.4000 247° West 338 389 11,100 360 Climbing Potomac TRACON
08:43PM 38.4893 -77.7380 237° Southwest  Level FlightAware Approximate
08:45PM 38.5919 -77.6236 247° West 314 361 12,000  Level Washington Center
08:46PM 38.5111 -77.5869 160° South 236 272 12,900 1,380 Climbing Washington Center
08:47PM 38.4322 -77.5636 167° South 257 296 14,800 1,320 Climbing Washington Center
08:48PM 38.3725 -77.6494 228° Southwest 271 312 15,600 780 Climbing Washington Center
08:49PM 38.3164 -77.7617 238° Southwest 302 348 16,400 2,160 Climbing Washington Center
08:50PM 38.2786 -77.8875 249° West 351 404 20,100 2,640 Climbing Washington Center
08:51PM 38.2450 -78.0028 250° West 356 410 21,800 1,680 Climbing Washington Center
08:52PM 38.2111 -78.1233 250° West 356 410 23,500 1,560 Climbing Washington Center
08:53PM 38.1692 -78.2408 246° West 361 415 25,000 1,380 Climbing Washington Center
08:54PM 38.0942 -78.3306 223° Southwest 361 415 26,400 1,260 Climbing Washington Center
08:55PM 38.0025 -78.4114 215° Southwest 366 421 27,500 960 Climbing Washington Center
08:56PM 37.9089 -78.4869 212° Southwest 379 436 28,300 1,200 Climbing Washington Center
08:57PM 37.8175 -78.5622 213° Southwest 394 453 30,000 780 Climbing Washington Center
08:58PM 37.7344 -78.6300 213° Southwest 400 460 30,000  Level Washington Center
08:59PM 37.6450 -78.7025 213° Southwest 400 460 30,000  Level Washington Center
09:00PM 37.5553 -78.7800 214° Southwest 400 460 30,000  Level Washington Center
09:01PM 37.4636 -78.8547 213° Southwest 406 467 30,000  Level Washington Center
09:02PM 37.3569 -78.9336 210° Southwest 406 467 30,000  Level Washington Center
09:03PM 37.2592 -78.9997 208° Southwest 401 461 30,000  Level Washington Center
09:04PM 37.1614 -79.0683 209° Southwest 406 467 30,000  Level Washington Center
09:05PM 37.0633 -79.1342 208° Southwest 411 473 30,000  Level Washington Center
09:06PM 36.9633 -79.2025 209° Southwest 411 473 30,000  Level Washington Center
09:07PM 36.8739 -79.2633 209° Southwest 411 473 30,000  Level Washington Center
09:08PM 36.7736 -79.3311 208° Southwest 411 473 30,000  Level Washington Center
09:09PM 36.6733 -79.4014 209° Southwest 411 473 30,000  Level Washington Center
09:11PM 36.4375 -79.5614 209° Southwest 404 465 30,000  Level Atlanta Center
09:12PM 36.3381 -79.6339 210° Southwest 410 472 30,000  Level Atlanta Center
09:13PM 36.2261 -79.7122 209° Southwest 415 478 30,000  Level Atlanta Center
09:14PM 36.1308 -79.7917 214° Southwest 415 478 30,000  Level Atlanta Center
09:15PM 36.0403 -79.8864 220° Southwest 425 489 30,000  Level Atlanta Center
09:16PM 35.9581 -79.9881 225° Southwest 425 489 30,000  Level Atlanta Center
09:17PM 35.9036 -80.1061 240° Southwest 425 489 30,000  Level Atlanta Center
09:18PM 35.8533 -80.2342 244° Southwest 431 496 30,000  Level Atlanta Center
09:19PM 35.7953 -80.3853 245° Southwest 436 502 30,000  Level Atlanta Center
09:20PM 35.7406 -80.5131 242° Southwest 431 496 30,000  Level Atlanta Center
09:21PM 35.6881 -80.6433 244° Southwest 431 496 30,000  Level Atlanta Center
09:22PM 35.6644 -80.7797 258° West 437 503 30,000  Level Atlanta Center
09:23PM 35.6475 -80.9261 262° West 442 509 30,000  Level Atlanta Center
09:24PM 35.6322 -81.0722 263° West 442 509 30,000  Level Atlanta Center
09:25PM 35.6086 -81.2161 259° West 442 509 30,000  Level Atlanta Center
09:26PM 35.5622 -81.3761 250° West 442 509 30,000  Level Atlanta Center
09:27PM 35.5044 -81.5056 241° Southwest 442 509 30,000  Level Atlanta Center
09:28PM 35.4486 -81.6347 242° Southwest 437 503 30,000  Level Atlanta Center
09:29PM 35.3906 -81.7664 242° Southwest 443 510 30,000  Level Atlanta Center
09:30PM 35.3325 -81.8978 242° Southwest 443 510 30,000  Level Atlanta Center
09:31PM 35.2803 -82.0186 242° Southwest 438 504 30,000  Level Atlanta Center
09:32PM 35.2217 -82.1497 241° Southwest 443 510 30,000  Level Atlanta Center
09:33PM 35.1592 -82.2833 240° Southwest 448 516 30,000  Level Atlanta Center
09:34PM 35.0794 -82.4069 232° Southwest 453 521 30,000  Level Atlanta Center
09:35PM 34.9975 -82.5250 230° Southwest 461 531 30,000  Level Atlanta Center
09:36PM 34.9175 -82.6431 230° Southwest 466 536 30,000  Level Atlanta Center
09:37PM 34.8394 -82.7583 230° Southwest 461 531 30,000  Level Atlanta Center
09:38PM 34.7592 -82.8783 231° Southwest 456 525 30,000 -420 Level Atlanta Center
09:39PM 34.6728 -83.0058 231° Southwest 451 519 29,200 -1,980 Descending Atlanta Center
09:40PM 34.5922 -83.1228 230° Southwest 458 527 26,100 -2,820 Descending Atlanta Center
09:41PM 34.5117 -83.2397 230° Southwest 449 517 23,600 -2,580 Descending Atlanta Center
09:42PM 34.4331 -83.3511 229° Southwest 449 517 21,000 -2,700 Descending Atlanta Center
09:43PM 34.3583 -83.4575 230° Southwest 432 497 18,300 -2,340 Descending Atlanta Center
09:44PM 34.2942 -83.5511 230° Southwest 414 476 16,400 -2,280 Descending Atlanta Center
09:45PM 34.2256 -83.6469 229° Southwest 396 456 13,800 -2,220 Descending Atlanta Center
09:46PM 34.1592 -83.7425 230° Southwest 380 437 12,000 -960 Descending Atlanta Center
09:47PM 34.0989 -83.8281 230° Southwest 353 406 11,900  Descending Atlanta Center
09:48PM 34.0500 -83.8833 223° Southwest 299 344 12,100 -780 Climbing Atlanta TRACON
09:49PM 33.9833 -83.9500 220° Southwest 302 348 10,600 -1,500 Descending Atlanta TRACON
09:50PM 33.9000 -83.9500 180° South 304 350 9,100 -840 Descending Atlanta TRACON
09:51PM 33.8167 -83.9500 180° South 306 352 9,000 -480 Descending Atlanta TRACON
09:51PM 33.7900 -83.9539 187° South 303 349 8,500 -1,620 Descending Atlanta Center
09:52PM 33.7086 -83.9739 192° South 303 349 7,000 -840 Descending Atlanta Center
09:53PM 33.6419 -84.0139 207° Southwest 290 334 6,900 -240 Descending Atlanta Center
09:54PM 33.6314 -84.0836 260° West 232 267 6,600 -840 Descending Atlanta Center
09:55PM 33.6333 -84.1333 273° West 207 238 5,600 -1,320 Descending Atlanta TRACON
09:56PM 33.6333 -84.2000 270° West 191 220 4,500 -960 Descending Atlanta TRACON
09:57PM 33.6333 -84.2500 270° West 167 192 3,700 -900 Descending Atlanta TRACON
09:58PM 33.6333 -84.3167 270° West 170 196 2,700 -1,020 Descending Atlanta TRACON